sensor_id;sensor_type;location;lat;lon;timestamp;pressure;altitude;pressure_sealevel;temperature;humidity
74615;BME280;63121;51.458;-0.110;2023-10-13T00:00:35;100684.22;;;22.32;65.86
74615;BME280;63121;51.458;-0.110;2023-10-13T00:03:06;100676.81;;;22.24;65.96
74615;BME280;63121;51.458;-0.110;2023-10-13T00:05:32;100674.06;;;22.26;65.35
74615;BME280;63121;51.458;-0.110;2023-10-13T00:08:02;100669.69;;;22.26;64.91
74615;BME280;63121;51.458;-0.110;2023-10-13T00:10:32;100662.59;;;22.12;64.35
74615;BME280;63121;51.458;-0.110;2023-10-13T00:13:00;100669.31;;;22.02;65.08
74615;BME280;63121;51.458;-0.110;2023-10-13T00:15:43;100652.28;;;22.24;64.71
74615;BME280;63121;51.458;-0.110;2023-10-13T00:18:30;100648.13;;;22.20;64.45
74615;BME280;63121;51.458;-0.110;2023-10-13T00:21:02;100637.47;;;22.23;64.93
74615;BME280;63121;51.458;-0.110;2023-10-13T00:23:41;100636.34;;;22.27;64.93
74615;BME280;63121;51.458;-0.110;2023-10-13T00:26:18;100637.88;;;22.01;64.39
74615;BME280;63121;51.458;-0.110;2023-10-13T00:28:44;100625.97;;;22.09;65.00
74615;BME280;63121;51.458;-0.110;2023-10-13T00:31:12;100620.16;;;22.19;64.84
74615;BME280;63121;51.458;-0.110;2023-10-13T00:33:40;100616.47;;;22.07;64.19
74615;BME280;63121;51.458;-0.110;2023-10-13T00:36:07;100614.31;;;22.13;64.21
74615;BME280;63121;51.458;-0.110;2023-10-13T00:38:34;100609.63;;;22.19;64.37
74615;BME280;63121;51.458;-0.110;2023-10-13T00:41:00;100602.13;;;22.12;64.36
74615;BME280;63121;51.458;-0.110;2023-10-13T00:43:44;100602.66;;;22.18;64.46
74615;BME280;63121;51.458;-0.110;2023-10-13T00:46:10;100591.41;;;22.01;64.73
74615;BME280;63121;51.458;-0.110;2023-10-13T00:48:40;100591.41;;;22.01;64.86
74615;BME280;63121;51.458;-0.110;2023-10-13T00:51:08;100585.03;;;21.91;64.82
74615;BME280;63121;51.458;-0.110;2023-10-13T00:53:44;100586.91;;;21.89;64.59
74615;BME280;63121;51.458;-0.110;2023-10-13T00:56:10;100574.53;;;21.91;64.97
74615;BME280;63121;51.458;-0.110;2023-10-13T00:58:46;100570.78;;;21.95;64.86
74615;BME280;63121;51.458;-0.110;2023-10-13T01:01:12;100559.38;;;21.95;64.92
74615;BME280;63121;51.458;-0.110;2023-10-13T01:03:50;100549.63;;;22.11;64.61
74615;BME280;63121;51.458;-0.110;2023-10-13T01:06:21;100536.94;;;22.18;64.20
74615;BME280;63121;51.458;-0.110;2023-10-13T01:09:06;100535.19;;;22.18;63.83
74615;BME280;63121;51.458;-0.110;2023-10-13T01:11:40;100527.50;;;21.86;64.67
74615;BME280;63121;51.458;-0.110;2023-10-13T01:14:08;100536.41;;;21.98;64.82
74615;BME280;63121;51.458;-0.110;2023-10-13T01:16:33;100536.97;;;22.03;64.61
74615;BME280;63121;51.458;-0.110;2023-10-13T01:19:00;100530.66;;;21.63;65.85
74615;BME280;63121;51.458;-0.110;2023-10-13T01:21:30;100518.84;;;21.56;65.83
74615;BME280;63121;51.458;-0.110;2023-10-13T01:23:57;100528.59;;;21.54;66.60
74615;BME280;63121;51.458;-0.110;2023-10-13T01:26:23;100517.16;;;21.69;66.66
74615;BME280;63121;51.458;-0.110;2023-10-13T01:28:56;100499.97;;;21.78;66.57
74615;BME280;63121;51.458;-0.110;2023-10-13T01:31:22;100492.13;;;21.63;67.02
74615;BME280;63121;51.458;-0.110;2023-10-13T01:33:54;100484.91;;;21.22;67.89
74615;BME280;63121;51.458;-0.110;2023-10-13T01:36:26;100484.38;;;21.31;67.16
74615;BME280;63121;51.458;-0.110;2023-10-13T01:38:53;100476.72;;;21.43;66.62
74615;BME280;63121;51.458;-0.110;2023-10-13T01:41:19;100476.72;;;21.57;66.58
74615;BME280;63121;51.458;-0.110;2023-10-13T01:43:45;100455.63;;;21.14;67.29
74615;BME280;63121;51.458;-0.110;2023-10-13T01:46:11;100464.41;;;20.52;68.71
74615;BME280;63121;51.458;-0.110;2023-10-13T01:48:39;100459.97;;;21.15;68.24
74615;BME280;63121;51.458;-0.110;2023-10-13T01:51:05;100453.25;;;20.95;67.06
74615;BME280;63121;51.458;-0.110;2023-10-13T01:53:35;100434.91;;;21.09;67.04
74615;BME280;63121;51.458;-0.110;2023-10-13T01:56:01;100416.72;;;20.92;67.84
74615;BME280;63121;51.458;-0.110;2023-10-13T01:58:30;100413.50;;;21.31;66.43
74615;BME280;63121;51.458;-0.110;2023-10-13T02:00:56;100411.13;;;21.41;66.02
74615;BME280;63121;51.458;-0.110;2023-10-13T02:03:22;100400.47;;;21.44;65.67
74615;BME280;63121;51.458;-0.110;2023-10-13T02:05:49;100384.81;;;21.43;65.30
74615;BME280;63121;51.458;-0.110;2023-10-13T02:08:19;100390.13;;;21.41;65.82
74615;BME280;63121;51.458;-0.110;2023-10-13T02:10:49;100394.06;;;21.63;65.14
74615;BME280;63121;51.458;-0.110;2023-10-13T02:13:17;100395.31;;;21.43;65.02
74615;BME280;63121;51.458;-0.110;2023-10-13T02:15:46;100384.69;;;21.30;65.08
74615;BME280;63121;51.458;-0.110;2023-10-13T02:18:17;100392.47;;;21.31;65.31
74615;BME280;63121;51.458;-0.110;2023-10-13T02:20:52;100393.53;;;20.84;65.55
74615;BME280;63121;51.458;-0.110;2023-10-13T02:23:23;100375.78;;;21.18;65.06
74615;BME280;63121;51.458;-0.110;2023-10-13T02:26:04;100375.47;;;21.23;64.67
74615;BME280;63121;51.458;-0.110;2023-10-13T02:28:36;100365.09;;;21.64;64.20
74615;BME280;63121;51.458;-0.110;2023-10-13T02:31:03;100353.53;;;21.67;64.00
74615;BME280;63121;51.458;-0.110;2023-10-13T02:33:29;100347.06;;;21.58;63.50
74615;BME280;63121;51.458;-0.110;2023-10-13T02:35:59;100345.78;;;21.51;63.92
74615;BME280;63121;51.458;-0.110;2023-10-13T02:38:29;100350.91;;;21.67;63.80
74615;BME280;63121;51.458;-0.110;2023-10-13T02:41:03;100339.38;;;21.69;63.84
74615;BME280;63121;51.458;-0.110;2023-10-13T02:43:35;100324.09;;;21.62;64.34
74615;BME280;63121;51.458;-0.110;2023-10-13T02:46:01;100310.56;;;21.68;64.14
74615;BME280;63121;51.458;-0.110;2023-10-13T02:48:28;100304.81;;;21.76;63.97
74615;BME280;63121;51.458;-0.110;2023-10-13T02:51:08;100297.78;;;21.49;64.02
74615;BME280;63121;51.458;-0.110;2023-10-13T02:53:44;100284.13;;;21.57;63.78
74615;BME280;63121;51.458;-0.110;2023-10-13T02:56:13;100282.59;;;21.67;63.92
74615;BME280;63121;51.458;-0.110;2023-10-13T02:58:40;100275.69;;;21.66;64.28
74615;BME280;63121;51.458;-0.110;2023-10-13T03:01:09;100259.81;;;21.67;64.33
74615;BME280;63121;51.458;-0.110;2023-10-13T03:03:51;100251.47;;;21.61;64.53
74615;BME280;63121;51.458;-0.110;2023-10-13T03:06:19;100249.44;;;21.79;64.23
74615;BME280;63121;51.458;-0.110;2023-10-13T03:08:48;100234.34;;;21.55;64.59
74615;BME280;63121;51.458;-0.110;2023-10-13T03:11:13;100243.88;;;21.83;64.15
74615;BME280;63121;51.458;-0.110;2023-10-13T03:13:40;100232.69;;;21.67;64.87
74615;BME280;63121;51.458;-0.110;2023-10-13T03:16:14;100222.19;;;21.67;64.38
74615;BME280;63121;51.458;-0.110;2023-10-13T03:18:45;100221.09;;;21.57;64.42
74615;BME280;63121;51.458;-0.110;2023-10-13T03:21:19;100217.41;;;21.74;64.88
74615;BME280;63121;51.458;-0.110;2023-10-13T03:23:55;100205.06;;;21.61;65.11
74615;BME280;63121;51.458;-0.110;2023-10-13T03:26:20;100208.41;;;21.36;66.11
74615;BME280;63121;51.458;-0.110;2023-10-13T03:28:46;100200.00;;;21.58;65.77
74615;BME280;63121;51.458;-0.110;2023-10-13T03:31:18;100196.28;;;21.88;64.65
74615;BME280;63121;51.458;-0.110;2023-10-13T03:33:44;100181.63;;;21.71;65.80
74615;BME280;63121;51.458;-0.110;2023-10-13T03:36:12;100177.47;;;21.94;64.92
74615;BME280;63121;51.458;-0.110;2023-10-13T03:38:58;100163.88;;;21.62;65.65
74615;BME280;63121;51.458;-0.110;2023-10-13T03:41:23;100155.25;;;21.60;65.92
74615;BME280;63121;51.458;-0.110;2023-10-13T03:43:55;100138.69;;;21.98;64.68
74615;BME280;63121;51.458;-0.110;2023-10-13T03:46:34;100124.44;;;21.49;66.15
74615;BME280;63121;51.458;-0.110;2023-10-13T03:49:01;100121.13;;;21.72;65.80
74615;BME280;63121;51.458;-0.110;2023-10-13T03:51:27;100126.94;;;22.03;65.61
74615;BME280;63121;51.458;-0.110;2023-10-13T03:53:56;100112.41;;;21.98;65.23
74615;BME280;63121;51.458;-0.110;2023-10-13T03:56:27;100117.25;;;21.91;65.44
74615;BME280;63121;51.458;-0.110;2023-10-13T03:58:58;100104.84;;;21.93;65.57
74615;BME280;63121;51.458;-0.110;2023-10-13T04:01:25;100094.22;;;22.20;64.27
74615;BME280;63121;51.458;-0.110;2023-10-13T04:04:09;100087.81;;;21.99;64.88
74615;BME280;63121;51.458;-0.110;2023-10-13T04:06:38;100084.25;;;22.25;64.61
74615;BME280;63121;51.458;-0.110;2023-10-13T04:09:22;100070.97;;;22.40;64.39
74615;BME280;63121;51.458;-0.110;2023-10-13T04:12:03;100058.28;;;22.08;65.03
74615;BME280;63121;51.458;-0.110;2023-10-13T04:14:34;100068.81;;;21.95;65.29
74615;BME280;63121;51.458;-0.110;2023-10-13T04:17:06;100039.66;;;21.98;65.25
74615;BME280;63121;51.458;-0.110;2023-10-13T04:19:39;100046.63;;;21.99;65.17
74615;BME280;63121;51.458;-0.110;2023-10-13T04:22:24;100030.13;;;21.97;64.75
74615;BME280;63121;51.458;-0.110;2023-10-13T04:25:14;100034.50;;;21.97;65.66
74615;BME280;63121;51.458;-0.110;2023-10-13T04:27:58;100025.97;;;22.19;64.58
74615;BME280;63121;51.458;-0.110;2023-10-13T04:30:47;100035.25;;;22.11;64.75
74615;BME280;63121;51.458;-0.110;2023-10-13T04:33:26;100033.47;;;21.99;64.71
74615;BME280;63121;51.458;-0.110;2023-10-13T04:36:04;100031.97;;;22.21;64.35
74615;BME280;63121;51.458;-0.110;2023-10-13T04:38:58;100026.44;;;22.00;65.16
74615;BME280;63121;51.458;-0.110;2023-10-13T04:41:33;100027.91;;;21.91;65.24
74615;BME280;63121;51.458;-0.110;2023-10-13T04:46:58;100024.75;;;22.11;64.67
74615;BME280;63121;51.458;-0.110;2023-10-13T04:49:25;100031.91;;;22.09;65.03
74615;BME280;63121;51.458;-0.110;2023-10-13T04:51:58;100020.84;;;22.04;65.23
74615;BME280;63121;51.458;-0.110;2023-10-13T04:54:25;100022.00;;;22.00;64.65
74615;BME280;63121;51.458;-0.110;2023-10-13T04:56:51;100021.56;;;22.06;64.68
74615;BME280;63121;51.458;-0.110;2023-10-13T04:59:43;99997.88;;;21.82;65.25
74615;BME280;63121;51.458;-0.110;2023-10-13T05:02:27;100004.31;;;22.28;64.03
74615;BME280;63121;51.458;-0.110;2023-10-13T05:05:11;100005.91;;;22.05;64.30
74615;BME280;63121;51.458;-0.110;2023-10-13T05:07:46;100003.41;;;21.78;65.11
74615;BME280;63121;51.458;-0.110;2023-10-13T05:10:30;99995.63;;;22.02;64.39
74615;BME280;63121;51.458;-0.110;2023-10-13T05:13:15;99992.50;;;21.71;65.62
74615;BME280;63121;51.458;-0.110;2023-10-13T05:15:59;99981.34;;;21.93;64.63
74615;BME280;63121;51.458;-0.110;2023-10-13T05:18:43;99975.78;;;22.35;63.40
74615;BME280;63121;51.458;-0.110;2023-10-13T05:21:28;99975.66;;;21.99;64.81
74615;BME280;63121;51.458;-0.110;2023-10-13T05:24:12;99981.81;;;22.24;64.20
74615;BME280;63121;51.458;-0.110;2023-10-13T05:26:56;99959.91;;;21.99;64.66
74615;BME280;63121;51.458;-0.110;2023-10-13T05:29:45;99976.34;;;22.27;64.17
74615;BME280;63121;51.458;-0.110;2023-10-13T05:32:30;99959.50;;;22.29;64.06
74615;BME280;63121;51.458;-0.110;2023-10-13T05:35:14;99962.03;;;22.55;63.57
74615;BME280;63121;51.458;-0.110;2023-10-13T05:37:59;99954.75;;;22.59;63.01
74615;BME280;63121;51.458;-0.110;2023-10-13T05:40:56;99971.31;;;22.72;63.10
74615;BME280;63121;51.458;-0.110;2023-10-13T05:43:41;99961.44;;;22.87;62.63
74615;BME280;63121;51.458;-0.110;2023-10-13T05:46:25;99966.69;;;22.15;63.90
74615;BME280;63121;51.458;-0.110;2023-10-13T05:48:51;99963.25;;;22.86;62.43
74615;BME280;63121;51.458;-0.110;2023-10-13T05:51:39;99954.88;;;22.81;62.39
74615;BME280;63121;51.458;-0.110;2023-10-13T05:54:31;99965.88;;;22.38;62.97
74615;BME280;63121;51.458;-0.110;2023-10-13T05:57:16;99953.03;;;22.46;63.26
74615;BME280;63121;51.458;-0.110;2023-10-13T06:00:00;99943.72;;;22.78;62.57
74615;BME280;63121;51.458;-0.110;2023-10-13T06:02:43;99953.50;;;22.51;63.67
74615;BME280;63121;51.458;-0.110;2023-10-13T06:05:27;99940.25;;;22.77;62.32
74615;BME280;63121;51.458;-0.110;2023-10-13T06:08:11;99943.69;;;23.02;61.39
74615;BME280;63121;51.458;-0.110;2023-10-13T06:11:02;99955.38;;;22.38;63.32
74615;BME280;63121;51.458;-0.110;2023-10-13T06:13:47;99945.28;;;23.16;61.70
74615;BME280;63121;51.458;-0.110;2023-10-13T06:16:31;99924.97;;;22.93;61.96
74615;BME280;63121;51.458;-0.110;2023-10-13T06:19:15;99916.81;;;22.50;63.51
74615;BME280;63121;51.458;-0.110;2023-10-13T06:21:59;99920.75;;;22.44;63.32
74615;BME280;63121;51.458;-0.110;2023-10-13T06:24:43;99912.50;;;22.73;62.47
74615;BME280;63121;51.458;-0.110;2023-10-13T06:27:28;99901.75;;;22.87;62.24
74615;BME280;63121;51.458;-0.110;2023-10-13T06:30:11;99895.19;;;22.93;62.28
74615;BME280;63121;51.458;-0.110;2023-10-13T06:32:37;99895.00;;;23.19;61.14
74615;BME280;63121;51.458;-0.110;2023-10-13T06:35:05;99889.69;;;22.49;63.58
74615;BME280;63121;51.458;-0.110;2023-10-13T06:37:43;99871.22;;;23.20;61.33
74615;BME280;63121;51.458;-0.110;2023-10-13T06:40:10;99894.94;;;23.43;60.91
74615;BME280;63121;51.458;-0.110;2023-10-13T06:42:51;99888.34;;;23.26;61.12
74615;BME280;63121;51.458;-0.110;2023-10-13T06:45:18;99895.88;;;23.30;61.48
74615;BME280;63121;51.458;-0.110;2023-10-13T06:47:44;99902.72;;;22.98;62.29
74615;BME280;63121;51.458;-0.110;2023-10-13T06:50:13;99911.91;;;23.27;61.49
74615;BME280;63121;51.458;-0.110;2023-10-13T06:52:42;99906.91;;;23.47;61.36
74615;BME280;63121;51.458;-0.110;2023-10-13T06:55:08;99888.53;;;23.00;62.99
74615;BME280;63121;51.458;-0.110;2023-10-13T06:57:36;99888.84;;;22.96;63.81
74615;BME280;63121;51.458;-0.110;2023-10-13T07:00:07;99881.75;;;23.20;63.51
74615;BME280;63121;51.458;-0.110;2023-10-13T07:02:36;99887.03;;;23.43;63.06
74615;BME280;63121;51.458;-0.110;2023-10-13T07:05:02;99877.31;;;23.66;62.42
74615;BME280;63121;51.458;-0.110;2023-10-13T07:07:38;99878.88;;;22.77;64.45
74615;BME280;63121;51.458;-0.110;2023-10-13T07:10:08;99890.59;;;23.30;63.76
74615;BME280;63121;51.458;-0.110;2023-10-13T07:12:33;99877.66;;;23.50;62.98
74615;BME280;63121;51.458;-0.110;2023-10-13T07:14:59;99883.88;;;23.38;62.95
74615;BME280;63121;51.458;-0.110;2023-10-13T07:17:36;99890.22;;;23.12;63.83
74615;BME280;63121;51.458;-0.110;2023-10-13T07:20:05;99891.44;;;23.53;62.53
74615;BME280;63121;51.458;-0.110;2023-10-13T07:22:43;99891.44;;;23.31;63.63
74615;BME280;63121;51.458;-0.110;2023-10-13T07:25:55;99889.63;;;23.54;62.88
74615;BME280;63121;51.458;-0.110;2023-10-13T07:28:31;99875.72;;;23.63;62.12
74615;BME280;63121;51.458;-0.110;2023-10-13T07:30:59;99881.75;;;23.77;61.55
74615;BME280;63121;51.458;-0.110;2023-10-13T07:33:24;99881.41;;;23.36;62.74
74615;BME280;63121;51.458;-0.110;2023-10-13T07:36:03;99883.25;;;24.02;61.27
74615;BME280;63121;51.458;-0.110;2023-10-13T07:38:45;99872.91;;;23.55;61.32
74615;BME280;63121;51.458;-0.110;2023-10-13T07:41:15;99890.03;;;23.38;62.43
74615;BME280;63121;51.458;-0.110;2023-10-13T07:43:41;99894.19;;;23.74;61.86
74615;BME280;63121;51.458;-0.110;2023-10-13T07:46:06;99898.75;;;23.61;62.03
74615;BME280;63121;51.458;-0.110;2023-10-13T07:48:36;99905.22;;;23.57;62.53
74615;BME280;63121;51.458;-0.110;2023-10-13T07:51:05;99895.41;;;23.37;64.78
74615;BME280;63121;51.458;-0.110;2023-10-13T07:53:31;99896.31;;;23.02;64.71
74615;BME280;63121;51.458;-0.110;2023-10-13T07:56:00;99896.34;;;23.13;64.26
74615;BME280;63121;51.458;-0.110;2023-10-13T07:58:31;99871.28;;;22.96;65.66
74615;BME280;63121;51.458;-0.110;2023-10-13T08:00:59;99880.53;;;23.13;65.39
74615;BME280;63121;51.458;-0.110;2023-10-13T08:03:35;99869.25;;;23.67;63.43
74615;BME280;63121;51.458;-0.110;2023-10-13T08:06:09;99875.41;;;23.34;63.59
74615;BME280;63121;51.458;-0.110;2023-10-13T08:08:37;99877.31;;;23.54;63.38
74615;BME280;63121;51.458;-0.110;2023-10-13T08:11:11;99876.56;;;23.86;63.05
74615;BME280;63121;51.458;-0.110;2023-10-13T08:13:43;99889.63;;;23.99;62.09
74615;BME280;63121;51.458;-0.110;2023-10-13T08:16:12;99887.69;;;23.67;62.81
74615;BME280;63121;51.458;-0.110;2023-10-13T08:18:47;99878.38;;;23.86;61.89
74615;BME280;63121;51.458;-0.110;2023-10-13T08:21:14;99901.75;;;22.87;63.35
74615;BME280;63121;51.458;-0.110;2023-10-13T08:23:51;99893.09;;;23.21;62.46
74615;BME280;63121;51.458;-0.110;2023-10-13T08:26:23;99879.13;;;22.73;62.10
74615;BME280;63121;51.458;-0.110;2023-10-13T08:29:01;99879.56;;;23.14;61.33
74615;BME280;63121;51.458;-0.110;2023-10-13T08:31:46;99870.75;;;23.49;60.18
74615;BME280;63121;51.458;-0.110;2023-10-13T08:34:31;99868.31;;;23.46;59.56
74615;BME280;63121;51.458;-0.110;2023-10-13T08:37:04;99876.72;;;23.40;60.41
74615;BME280;63121;51.458;-0.110;2023-10-13T08:39:45;99884.38;;;23.20;60.67
74615;BME280;63121;51.458;-0.110;2023-10-13T08:42:34;99889.16;;;23.15;61.17
74615;BME280;63121;51.458;-0.110;2023-10-13T08:45:21;99889.16;;;22.68;62.58
74615;BME280;63121;51.458;-0.110;2023-10-13T08:47:53;99893.00;;;22.76;62.07
74615;BME280;63121;51.458;-0.110;2023-10-13T08:50:50;99903.91;;;22.23;63.80
74615;BME280;63121;51.458;-0.110;2023-10-13T08:56:11;99893.06;;;22.98;62.50
74615;BME280;63121;51.458;-0.110;2023-10-13T08:58:49;99903.25;;;22.67;62.66
74615;BME280;63121;51.458;-0.110;2023-10-13T09:04:18;99901.97;;;22.49;63.25
74615;BME280;63121;51.458;-0.110;2023-10-13T09:07:03;99899.34;;;22.73;62.80
74615;BME280;63121;51.458;-0.110;2023-10-13T09:09:47;99899.06;;;22.41;63.34
74615;BME280;63121;51.458;-0.110;2023-10-13T09:15:02;99910.25;;;22.56;64.02
74615;BME280;63121;51.458;-0.110;2023-10-13T09:17:47;99911.31;;;22.77;62.32
74615;BME280;63121;51.458;-0.110;2023-10-13T09:20:17;99922.50;;;22.68;62.74
74615;BME280;63121;51.458;-0.110;2023-10-13T09:23:13;99914.88;;;22.76;62.43
74615;BME280;63121;51.458;-0.110;2023-10-13T09:25:50;99912.97;;;23.02;61.89
74615;BME280;63121;51.458;-0.110;2023-10-13T09:28:34;99925.81;;;22.94;62.14
74615;BME280;63121;51.458;-0.110;2023-10-13T09:31:02;99906.78;;;22.79;63.06
74615;BME280;63121;51.458;-0.110;2023-10-13T09:33:30;99906.25;;;23.09;62.19
74615;BME280;63121;51.458;-0.110;2023-10-13T09:36:06;99907.34;;;22.71;63.65
74615;BME280;63121;51.458;-0.110;2023-10-13T09:38:33;99914.78;;;22.89;63.26
74615;BME280;63121;51.458;-0.110;2023-10-13T09:40:58;99906.97;;;22.65;64.07
74615;BME280;63121;51.458;-0.110;2023-10-13T09:43:43;99903.53;;;23.11;62.86
74615;BME280;63121;51.458;-0.110;2023-10-13T09:46:10;99907.81;;;23.01;63.05
74615;BME280;63121;51.458;-0.110;2023-10-13T09:51:18;99904.97;;;23.49;62.28
74615;BME280;63121;51.458;-0.110;2023-10-13T09:54:20;99907.94;;;23.67;61.68
74615;BME280;63121;51.458;-0.110;2023-10-13T09:56:56;99931.88;;;23.19;62.96
74615;BME280;63121;51.458;-0.110;2023-10-13T09:59:51;99922.81;;;23.45;62.48
74615;BME280;63121;51.458;-0.110;2023-10-13T10:02:18;99916.91;;;23.08;63.05
74615;BME280;63121;51.458;-0.110;2023-10-13T10:04:56;99899.47;;;23.41;61.99
74615;BME280;63121;51.458;-0.110;2023-10-13T10:07:38;99907.97;;;23.33;62.57
74615;BME280;63121;51.458;-0.110;2023-10-13T10:10:05;99912.09;;;23.02;63.71
74615;BME280;63121;51.458;-0.110;2023-10-13T10:17:45;99895.38;;;23.14;63.54
74615;BME280;63121;51.458;-0.110;2023-10-13T10:20:11;99883.28;;;23.23;62.86
74615;BME280;63121;51.458;-0.110;2023-10-13T10:22:58;99888.69;;;23.32;62.86
74615;BME280;63121;51.458;-0.110;2023-10-13T10:25:33;99900.56;;;23.38;63.08
74615;BME280;63121;51.458;-0.110;2023-10-13T10:28:06;99882.22;;;23.25;63.13
74615;BME280;63121;51.458;-0.110;2023-10-13T10:30:36;99898.13;;;23.35;63.22
74615;BME280;63121;51.458;-0.110;2023-10-13T10:33:04;99902.06;;;23.07;63.36
74615;BME280;63121;51.458;-0.110;2023-10-13T10:35:45;99901.38;;;23.84;61.64
74615;BME280;63121;51.458;-0.110;2023-10-13T10:38:13;99922.56;;;24.05;61.08
74615;BME280;63121;51.458;-0.110;2023-10-13T10:41:03;99907.75;;;23.36;62.83
74615;BME280;63121;51.458;-0.110;2023-10-13T10:43:39;99898.50;;;23.42;62.55
74615;BME280;63121;51.458;-0.110;2023-10-13T10:46:27;99892.38;;;23.86;61.26
74615;BME280;63121;51.458;-0.110;2023-10-13T10:48:53;99889.81;;;24.07;61.01
74615;BME280;63121;51.458;-0.110;2023-10-13T10:51:26;99879.81;;;23.90;61.57
74615;BME280;63121;51.458;-0.110;2023-10-13T10:53:56;99878.59;;;23.94;61.38
74615;BME280;63121;51.458;-0.110;2023-10-13T10:56:24;99875.72;;;24.62;59.50
74615;BME280;63121;51.458;-0.110;2023-10-13T10:59:10;99865.59;;;24.46;59.93
74615;BME280;63121;51.458;-0.110;2023-10-13T11:01:44;99862.50;;;24.41;60.22
74615;BME280;63121;51.458;-0.110;2023-10-13T11:04:16;99857.78;;;24.77;58.75
74615;BME280;63121;51.458;-0.110;2023-10-13T11:06:46;99853.94;;;24.27;60.04
74615;BME280;63121;51.458;-0.110;2023-10-13T11:09:12;99846.59;;;24.31;59.97
74615;BME280;63121;51.458;-0.110;2023-10-13T11:11:47;99838.28;;;24.68;59.15
74615;BME280;63121;51.458;-0.110;2023-10-13T11:14:26;99854.47;;;25.05;57.57
74615;BME280;63121;51.458;-0.110;2023-10-13T11:16:53;99858.94;;;24.63;59.62
74615;BME280;63121;51.458;-0.110;2023-10-13T11:19:41;99860.66;;;24.94;58.32
74615;BME280;63121;51.458;-0.110;2023-10-13T11:22:36;99850.44;;;25.72;56.88
74615;BME280;63121;51.458;-0.110;2023-10-13T11:25:04;99854.78;;;25.83;56.05
74615;BME280;63121;51.458;-0.110;2023-10-13T11:27:42;99867.28;;;25.10;56.99
74615;BME280;63121;51.458;-0.110;2023-10-13T11:30:14;99847.66;;;25.03;57.12
74615;BME280;63121;51.458;-0.110;2023-10-13T11:32:41;99857.25;;;24.83;58.54
74615;BME280;63121;51.458;-0.110;2023-10-13T11:35:10;99850.41;;;25.01;58.25
74615;BME280;63121;51.458;-0.110;2023-10-13T11:37:46;99862.34;;;24.95;58.34
74615;BME280;63121;51.458;-0.110;2023-10-13T11:40:21;99852.78;;;25.66;56.52
74615;BME280;63121;51.458;-0.110;2023-10-13T11:43:06;99860.56;;;25.67;55.89
74615;BME280;63121;51.458;-0.110;2023-10-13T11:45:39;99848.50;;;25.13;57.02
74615;BME280;63121;51.458;-0.110;2023-10-13T11:48:18;99843.66;;;24.87;57.16
74615;BME280;63121;51.458;-0.110;2023-10-13T11:50:49;99852.25;;;25.82;55.20
74615;BME280;63121;51.458;-0.110;2023-10-13T11:53:14;99841.81;;;25.70;54.66
74615;BME280;63121;51.458;-0.110;2023-10-13T11:55:39;99829.75;;;26.55;52.44
74615;BME280;63121;51.458;-0.110;2023-10-13T11:58:05;99843.97;;;25.46;54.93
74615;BME280;63121;51.458;-0.110;2023-10-13T12:00:31;99848.88;;;25.60;54.48
74615;BME280;63121;51.458;-0.110;2023-10-13T12:03:15;99838.50;;;25.28;54.81
74615;BME280;63121;51.458;-0.110;2023-10-13T12:05:59;99844.16;;;25.02;55.91
74615;BME280;63121;51.458;-0.110;2023-10-13T12:08:45;99840.41;;;24.74;56.35
74615;BME280;63121;51.458;-0.110;2023-10-13T12:11:18;99837.69;;;24.85;55.28
74615;BME280;63121;51.458;-0.110;2023-10-13T12:13:56;99856.81;;;24.99;55.24
74615;BME280;63121;51.458;-0.110;2023-10-13T12:16:21;99838.19;;;24.79;55.08
74615;BME280;63121;51.458;-0.110;2023-10-13T12:18:47;99842.41;;;25.12;54.23
74615;BME280;63121;51.458;-0.110;2023-10-13T12:21:19;99870.22;;;25.38;53.32
74615;BME280;63121;51.458;-0.110;2023-10-13T12:23:46;99854.00;;;25.52;51.71
74615;BME280;63121;51.458;-0.110;2023-10-13T12:26:12;99855.63;;;25.43;51.92
74615;BME280;63121;51.458;-0.110;2023-10-13T12:28:47;99864.66;;;24.89;52.72
74615;BME280;63121;51.458;-0.110;2023-10-13T12:31:30;99862.53;;;25.04;52.08
74615;BME280;63121;51.458;-0.110;2023-10-13T12:33:57;99853.66;;;24.30;53.60
74615;BME280;63121;51.458;-0.110;2023-10-13T12:36:34;99865.75;;;25.07;52.01
74615;BME280;63121;51.458;-0.110;2023-10-13T12:39:18;99848.34;;;25.66;49.96
74615;BME280;63121;51.458;-0.110;2023-10-13T12:42:02;99847.72;;;25.93;48.37
74615;BME280;63121;51.458;-0.110;2023-10-13T12:44:46;99851.50;;;26.10;48.62
74615;BME280;63121;51.458;-0.110;2023-10-13T12:47:30;99850.44;;;25.72;47.76
74615;BME280;63121;51.458;-0.110;2023-10-13T12:50:14;99844.53;;;25.59;47.34
74615;BME280;63121;51.458;-0.110;2023-10-13T12:52:49;99854.09;;;24.89;48.87
74615;BME280;63121;51.458;-0.110;2023-10-13T12:55:15;99836.31;;;26.12;47.15
74615;BME280;63121;51.458;-0.110;2023-10-13T12:57:44;99842.00;;;26.47;46.14
74615;BME280;63121;51.458;-0.110;2023-10-13T13:00:11;99838.50;;;26.56;46.06
74615;BME280;63121;51.458;-0.110;2023-10-13T13:02:46;99854.97;;;25.91;47.35
74615;BME280;63121;51.458;-0.110;2023-10-13T13:05:12;99855.16;;;25.69;48.22
74615;BME280;63121;51.458;-0.110;2023-10-13T13:07:41;99854.28;;;26.09;47.87
74615;BME280;63121;51.458;-0.110;2023-10-13T13:10:13;99857.59;;;25.91;47.98
74615;BME280;63121;51.458;-0.110;2023-10-13T13:12:40;99841.31;;;25.46;49.25
74615;BME280;63121;51.458;-0.110;2023-10-13T13:15:05;99849.75;;;25.30;49.40
74615;BME280;63121;51.458;-0.110;2023-10-13T13:17:36;99844.78;;;25.37;49.31
74615;BME280;63121;51.458;-0.110;2023-10-13T13:20:05;99837.03;;;25.54;49.02
74615;BME280;63121;51.458;-0.110;2023-10-13T13:22:37;99840.75;;;26.41;47.64
74615;BME280;63121;51.458;-0.110;2023-10-13T13:25:03;99832.00;;;25.92;48.48
74615;BME280;63121;51.458;-0.110;2023-10-13T13:27:32;99841.81;;;25.70;48.13
74615;BME280;63121;51.458;-0.110;2023-10-13T13:29:58;99817.81;;;26.12;47.04
74615;BME280;63121;51.458;-0.110;2023-10-13T13:32:23;99816.25;;;26.10;47.49
74615;BME280;63121;51.458;-0.110;2023-10-13T13:34:54;99815.38;;;25.70;47.97
74615;BME280;63121;51.458;-0.110;2023-10-13T13:37:22;99798.53;;;26.69;45.14
74615;BME280;63121;51.458;-0.110;2023-10-13T13:39:47;99808.31;;;26.39;45.70